sensor_id;sensor_type;location;lat;lon;timestamp;P1;durP1;ratioP1;P2;durP2;ratioP2
8100;SDS011;4093;53.470;9.832;2023-08-08T00:01:54;4.20;;;2.67;;
8100;SDS011;4093;53.470;9.832;2023-08-08T00:04:22;6.40;;;3.03;;
8100;SDS011;4093;53.470;9.832;2023-08-08T00:06:50;4.33;;;2.67;;
8100;SDS011;4093;53.470;9.832;2023-08-08T00:09:18;7.40;;;3.47;;
8100;SDS011;4093;53.470;9.832;2023-08-08T00:11:47;6.70;;;3.10;;
8100;SDS011;4093;53.470;9.832;2023-08-08T00:14:15;5.80;;;3.00;;
8100;SDS011;4093;53.470;9.832;2023-08-08T00:16:42;8.17;;;2.87;;
8100;SDS011;4093;53.470;9.832;2023-08-08T00:19:10;7.47;;;3.07;;
8100;SDS011;4093;53.470;9.832;2023-08-08T00:21:38;3.50;;;2.50;;
8100;SDS011;4093;53.470;9.832;2023-08-08T00:24:05;9.47;;;3.00;;
8100;SDS011;4093;53.470;9.832;2023-08-08T00:26:33;6.70;;;3.30;;
8100;SDS011;4093;53.470;9.832;2023-08-08T00:29:02;6.27;;;2.87;;
8100;SDS011;4093;53.470;9.832;2023-08-08T00:31:30;6.33;;;3.33;;
8100;SDS011;4093;53.470;9.832;2023-08-08T00:33:58;7.00;;;3.33;;
8100;SDS011;4093;53.470;9.832;2023-08-08T00:36:25;5.90;;;3.20;;
8100;SDS011;4093;53.470;9.832;2023-08-08T00:38:53;6.30;;;3.10;;
8100;SDS011;4093;53.470;9.832;2023-08-08T00:41:21;8.80;;;3.67;;
8100;SDS011;4093;53.470;9.832;2023-08-08T00:43:49;6.40;;;3.40;;
8100;SDS011;4093;53.470;9.832;2023-08-08T00:46:19;4.37;;;2.73;;
8100;SDS011;4093;53.470;9.832;2023-08-08T00:48:50;7.37;;;2.97;;
8100;SDS011;4093;53.470;9.832;2023-08-08T00:51:18;7.23;;;3.10;;
8100;SDS011;4093;53.470;9.832;2023-08-08T00:53:47;6.27;;;3.47;;
8100;SDS011;4093;53.470;9.832;2023-08-08T00:56:16;4.57;;;3.37;;
8100;SDS011;4093;53.470;9.832;2023-08-08T00:58:44;6.10;;;3.07;;
8100;SDS011;4093;53.470;9.832;2023-08-08T01:01:12;7.07;;;3.50;;
8100;SDS011;4093;53.470;9.832;2023-08-08T01:03:41;4.83;;;3.30;;
8100;SDS011;4093;53.470;9.832;2023-08-08T01:06:10;5.87;;;3.20;;
8100;SDS011;4093;53.470;9.832;2023-08-08T01:08:44;4.73;;;2.90;;
8100;SDS011;4093;53.470;9.832;2023-08-08T01:11:15;7.13;;;3.43;;
8100;SDS011;4093;53.470;9.832;2023-08-08T01:13:44;3.27;;;2.77;;
8100;SDS011;4093;53.470;9.832;2023-08-08T01:16:13;8.53;;;3.10;;
8100;SDS011;4093;53.470;9.832;2023-08-08T01:18:44;7.10;;;2.90;;
8100;SDS011;4093;53.470;9.832;2023-08-08T01:21:14;4.93;;;3.33;;
8100;SDS011;4093;53.470;9.832;2023-08-08T01:23:44;6.40;;;3.33;;
8100;SDS011;4093;53.470;9.832;2023-08-08T01:26:16;8.73;;;3.57;;
8100;SDS011;4093;53.470;9.832;2023-08-08T01:28:44;5.90;;;3.17;;
8100;SDS011;4093;53.470;9.832;2023-08-08T01:31:12;6.67;;;2.80;;
8100;SDS011;4093;53.470;9.832;2023-08-08T01:33:40;7.87;;;2.70;;
8100;SDS011;4093;53.470;9.832;2023-08-08T01:36:10;6.97;;;3.03;;
8100;SDS011;4093;53.470;9.832;2023-08-08T01:38:47;3.63;;;3.13;;
8100;SDS011;4093;53.470;9.832;2023-08-08T01:41:20;4.13;;;2.60;;
8100;SDS011;4093;53.470;9.832;2023-08-08T01:43:48;9.53;;;3.20;;
8100;SDS011;4093;53.470;9.832;2023-08-08T01:46:17;6.97;;;2.80;;
8100;SDS011;4093;53.470;9.832;2023-08-08T01:48:45;5.23;;;2.53;;
8100;SDS011;4093;53.470;9.832;2023-08-08T01:51:13;7.80;;;2.57;;
8100;SDS011;4093;53.470;9.832;2023-08-08T01:53:41;4.57;;;2.73;;
8100;SDS011;4093;53.470;9.832;2023-08-08T01:56:09;4.33;;;2.50;;
8100;SDS011;4093;53.470;9.832;2023-08-08T01:58:38;5.27;;;3.20;;
8100;SDS011;4093;53.470;9.832;2023-08-08T02:01:06;5.60;;;2.80;;
8100;SDS011;4093;53.470;9.832;2023-08-08T02:03:33;4.67;;;2.57;;
8100;SDS011;4093;53.470;9.832;2023-08-08T02:06:01;4.73;;;2.07;;
8100;SDS011;4093;53.470;9.832;2023-08-08T02:08:29;4.40;;;2.37;;
8100;SDS011;4093;53.470;9.832;2023-08-08T02:10:57;3.00;;;2.13;;
8100;SDS011;4093;53.470;9.832;2023-08-08T02:13:24;3.50;;;2.40;;
8100;SDS011;4093;53.470;9.832;2023-08-08T02:15:53;3.50;;;2.30;;
8100;SDS011;4093;53.470;9.832;2023-08-08T02:18:21;3.30;;;2.40;;
8100;SDS011;4093;53.470;9.832;2023-08-08T02:20:49;3.10;;;2.30;;
8100;SDS011;4093;53.470;9.832;2023-08-08T02:23:16;2.37;;;2.17;;
8100;SDS011;4093;53.470;9.832;2023-08-08T02:25:44;4.70;;;2.33;;
8100;SDS011;4093;53.470;9.832;2023-08-08T02:28:12;3.80;;;2.40;;
8100;SDS011;4093;53.470;9.832;2023-08-08T02:30:40;4.23;;;2.87;;
8100;SDS011;4093;53.470;9.832;2023-08-08T02:33:09;4.30;;;2.70;;
8100;SDS011;4093;53.470;9.832;2023-08-08T02:35:37;5.03;;;2.67;;
8100;SDS011;4093;53.470;9.832;2023-08-08T02:38:04;3.57;;;2.30;;
8100;SDS011;4093;53.470;9.832;2023-08-08T02:40:32;3.97;;;2.40;;
8100;SDS011;4093;53.470;9.832;2023-08-08T02:43:00;4.30;;;2.67;;
8100;SDS011;4093;53.470;9.832;2023-08-08T02:45:28;3.37;;;2.57;;
8100;SDS011;4093;53.470;9.832;2023-08-08T02:47:55;4.90;;;2.90;;
8100;SDS011;4093;53.470;9.832;2023-08-08T02:50:24;4.53;;;2.80;;
8100;SDS011;4093;53.470;9.832;2023-08-08T02:52:52;5.80;;;2.93;;
8100;SDS011;4093;53.470;9.832;2023-08-08T02:55:20;3.83;;;2.60;;
8100;SDS011;4093;53.470;9.832;2023-08-08T02:57:48;4.57;;;2.57;;
8100;SDS011;4093;53.470;9.832;2023-08-08T03:00:15;6.00;;;2.40;;
8100;SDS011;4093;53.470;9.832;2023-08-08T03:02:43;5.33;;;2.80;;
8100;SDS011;4093;53.470;9.832;2023-08-08T03:05:11;6.27;;;2.80;;
8100;SDS011;4093;53.470;9.832;2023-08-08T03:07:40;4.57;;;2.87;;
8100;SDS011;4093;53.470;9.832;2023-08-08T03:10:08;5.57;;;2.93;;
8100;SDS011;4093;53.470;9.832;2023-08-08T03:12:36;8.13;;;2.73;;
8100;SDS011;4093;53.470;9.832;2023-08-08T03:15:06;6.27;;;2.80;;
8100;SDS011;4093;53.470;9.832;2023-08-08T03:17:34;5.03;;;2.70;;
8100;SDS011;4093;53.470;9.832;2023-08-08T03:20:02;3.93;;;2.77;;
8100;SDS011;4093;53.470;9.832;2023-08-08T03:22:32;5.70;;;2.73;;
8100;SDS011;4093;53.470;9.832;2023-08-08T03:25:01;3.50;;;2.43;;
8100;SDS011;4093;53.470;9.832;2023-08-08T03:27:30;5.10;;;2.47;;
8100;SDS011;4093;53.470;9.832;2023-08-08T03:29:58;5.20;;;3.00;;
8100;SDS011;4093;53.470;9.832;2023-08-08T03:32:26;3.83;;;2.80;;
8100;SDS011;4093;53.470;9.832;2023-08-08T03:34:55;7.87;;;3.23;;
8100;SDS011;4093;53.470;9.832;2023-08-08T03:37:22;3.83;;;2.57;;
8100;SDS011;4093;53.470;9.832;2023-08-08T03:39:50;4.73;;;2.70;;
8100;SDS011;4093;53.470;9.832;2023-08-08T03:42:20;3.73;;;2.80;;
8100;SDS011;4093;53.470;9.832;2023-08-08T03:44:47;2.73;;;2.50;;
8100;SDS011;4093;53.470;9.832;2023-08-08T03:47:15;3.07;;;2.77;;
8100;SDS011;4093;53.470;9.832;2023-08-08T03:49:45;3.83;;;2.70;;
8100;SDS011;4093;53.470;9.832;2023-08-08T03:52:13;5.03;;;2.97;;
8100;SDS011;4093;53.470;9.832;2023-08-08T03:54:42;3.03;;;2.60;;
8100;SDS011;4093;53.470;9.832;2023-08-08T03:57:10;3.50;;;2.67;;
8100;SDS011;4093;53.470;9.832;2023-08-08T03:59:39;4.40;;;3.13;;
8100;SDS011;4093;53.470;9.832;2023-08-08T04:02:07;4.07;;;2.57;;
8100;SDS011;4093;53.470;9.832;2023-08-08T04:04:34;5.73;;;2.67;;
8100;SDS011;4093;53.470;9.832;2023-08-08T04:07:02;4.23;;;2.70;;
8100;SDS011;4093;53.470;9.832;2023-08-08T04:09:30;6.47;;;3.00;;
8100;SDS011;4093;53.470;9.832;2023-08-08T04:11:58;4.60;;;2.63;;
8100;SDS011;4093;53.470;9.832;2023-08-08T04:14:27;3.43;;;2.60;;
8100;SDS011;4093;53.470;9.832;2023-08-08T04:16:56;7.10;;;2.97;;
8100;SDS011;4093;53.470;9.832;2023-08-08T04:19:24;5.30;;;2.80;;
8100;SDS011;4093;53.470;9.832;2023-08-08T04:21:52;5.37;;;2.70;;
8100;SDS011;4093;53.470;9.832;2023-08-08T04:24:19;7.63;;;2.90;;
8100;SDS011;4093;53.470;9.832;2023-08-08T04:26:47;6.23;;;2.93;;
8100;SDS011;4093;53.470;9.832;2023-08-08T04:29:15;2.97;;;2.63;;
8100;SDS011;4093;53.470;9.832;2023-08-08T04:31:43;4.17;;;2.83;;
8100;SDS011;4093;53.470;9.832;2023-08-08T04:34:12;3.67;;;2.67;;
8100;SDS011;4093;53.470;9.832;2023-08-08T04:36:39;3.77;;;2.93;;
8100;SDS011;4093;53.470;9.832;2023-08-08T04:39:07;4.63;;;2.83;;
8100;SDS011;4093;53.470;9.832;2023-08-08T04:41:35;4.80;;;2.97;;
8100;SDS011;4093;53.470;9.832;2023-08-08T04:44:02;4.23;;;2.70;;
8100;SDS011;4093;53.470;9.832;2023-08-08T04:46:30;7.47;;;2.77;;
8100;SDS011;4093;53.470;9.832;2023-08-08T04:48:58;3.37;;;2.80;;
8100;SDS011;4093;53.470;9.832;2023-08-08T04:51:27;3.93;;;2.40;;
8100;SDS011;4093;53.470;9.832;2023-08-08T04:53:55;6.77;;;2.77;;
8100;SDS011;4093;53.470;9.832;2023-08-08T04:56:23;4.80;;;2.60;;
8100;SDS011;4093;53.470;9.832;2023-08-08T04:58:52;4.10;;;2.50;;
8100;SDS011;4093;53.470;9.832;2023-08-08T05:01:20;5.67;;;2.60;;
8100;SDS011;4093;53.470;9.832;2023-08-08T05:03:48;4.83;;;2.43;;
8100;SDS011;4093;53.470;9.832;2023-08-08T05:06:18;6.27;;;2.60;;
8100;SDS011;4093;53.470;9.832;2023-08-08T05:08:48;6.50;;;2.60;;
8100;SDS011;4093;53.470;9.832;2023-08-08T05:11:17;4.20;;;2.77;;
8100;SDS011;4093;53.470;9.832;2023-08-08T05:13:45;3.70;;;2.70;;
8100;SDS011;4093;53.470;9.832;2023-08-08T05:16:12;4.20;;;2.33;;
8100;SDS011;4093;53.470;9.832;2023-08-08T05:18:40;2.33;;;2.13;;
8100;SDS011;4093;53.470;9.832;2023-08-08T05:21:10;2.80;;;2.20;;
8100;SDS011;4093;53.470;9.832;2023-08-08T05:23:38;3.40;;;2.40;;
8100;SDS011;4093;53.470;9.832;2023-08-08T05:26:07;4.40;;;2.23;;
8100;SDS011;4093;53.470;9.832;2023-08-08T05:28:34;5.27;;;2.40;;
8100;SDS011;4093;53.470;9.832;2023-08-08T05:31:02;2.97;;;2.03;;
8100;SDS011;4093;53.470;9.832;2023-08-08T05:33:30;3.53;;;2.20;;
8100;SDS011;4093;53.470;9.832;2023-08-08T05:35:59;3.93;;;2.10;;
8100;SDS011;4093;53.470;9.832;2023-08-08T05:38:27;3.33;;;2.03;;
8100;SDS011;4093;53.470;9.832;2023-08-08T05:40:54;3.93;;;2.10;;
8100;SDS011;4093;53.470;9.832;2023-08-08T05:43:23;3.33;;;2.17;;
8100;SDS011;4093;53.470;9.832;2023-08-08T05:45:53;2.97;;;2.40;;
8100;SDS011;4093;53.470;9.832;2023-08-08T05:48:21;3.47;;;2.30;;
8100;SDS011;4093;53.470;9.832;2023-08-08T05:50:48;2.53;;;2.33;;
8100;SDS011;4093;53.470;9.832;2023-08-08T05:53:16;5.70;;;2.83;;
8100;SDS011;4093;53.470;9.832;2023-08-08T05:55:44;2.80;;;2.50;;
8100;SDS011;4093;53.470;9.832;2023-08-08T05:58:12;3.93;;;2.90;;
8100;SDS011;4093;53.470;9.832;2023-08-08T06:00:41;3.23;;;2.80;;
8100;SDS011;4093;53.470;9.832;2023-08-08T06:03:09;2.70;;;2.50;;
8100;SDS011;4093;53.470;9.832;2023-08-08T06:05:37;5.60;;;3.08;;
8100;SDS011;4093;53.470;9.832;2023-08-08T06:08:05;4.68;;;2.75;;
8100;SDS011;4093;53.470;9.832;2023-08-08T06:10:37;4.30;;;2.80;;
8100;SDS011;4093;53.470;9.832;2023-08-08T06:13:05;3.13;;;2.47;;
8100;SDS011;4093;53.470;9.832;2023-08-08T06:15:33;4.53;;;2.80;;
8100;SDS011;4093;53.470;9.832;2023-08-08T06:18:02;3.53;;;2.83;;
8100;SDS011;4093;53.470;9.832;2023-08-08T06:20:30;4.30;;;2.60;;
8100;SDS011;4093;53.470;9.832;2023-08-08T06:22:57;4.93;;;2.20;;
8100;SDS011;4093;53.470;9.832;2023-08-08T06:25:25;4.17;;;2.50;;
8100;SDS011;4093;53.470;9.832;2023-08-08T06:27:54;2.43;;;2.10;;
8100;SDS011;4093;53.470;9.832;2023-08-08T06:30:22;3.22;;;2.55;;
8100;SDS011;4093;53.470;9.832;2023-08-08T06:32:49;3.88;;;2.33;;
8100;SDS011;4093;53.470;9.832;2023-08-08T06:35:18;4.32;;;2.33;;
8100;SDS011;4093;53.470;9.832;2023-08-08T06:37:46;3.10;;;2.30;;
8100;SDS011;4093;53.470;9.832;2023-08-08T06:40:14;2.67;;;1.92;;
8100;SDS011;4093;53.470;9.832;2023-08-08T06:42:42;4.90;;;2.17;;
8100;SDS011;4093;53.470;9.832;2023-08-08T06:45:09;2.88;;;1.92;;
8100;SDS011;4093;53.470;9.832;2023-08-08T06:47:37;2.08;;;1.70;;
8100;SDS011;4093;53.470;9.832;2023-08-08T06:50:05;4.35;;;2.10;;
8100;SDS011;4093;53.470;9.832;2023-08-08T06:52:35;3.40;;;1.85;;
8100;SDS011;4093;53.470;9.832;2023-08-08T06:55:03;3.30;;;2.03;;
8100;SDS011;4093;53.470;9.832;2023-08-08T06:57:32;4.57;;;1.80;;
8100;SDS011;4093;53.470;9.832;2023-08-08T07:00:01;6.18;;;2.03;;
8100;SDS011;4093;53.470;9.832;2023-08-08T07:02:31;1.95;;;1.80;;
8100;SDS011;4093;53.470;9.832;2023-08-08T07:04:59;3.90;;;2.40;;
8100;SDS011;4093;53.470;9.832;2023-08-08T07:07:27;3.22;;;2.10;;
8100;SDS011;4093;53.470;9.832;2023-08-08T07:09:57;3.53;;;2.08;;
8100;SDS011;4093;53.470;9.832;2023-08-08T07:12:25;3.95;;;2.08;;
8100;SDS011;4093;53.470;9.832;2023-08-08T07:14:53;3.25;;;1.80;;
8100;SDS011;4093;53.470;9.832;2023-08-08T07:17:20;4.30;;;1.80;;
8100;SDS011;4093;53.470;9.832;2023-08-08T07:19:48;3.10;;;1.73;;
8100;SDS011;4093;53.470;9.832;2023-08-08T07:22:17;4.43;;;2.10;;
8100;SDS011;4093;53.470;9.832;2023-08-08T07:24:44;3.92;;;2.33;;
8100;SDS011;4093;53.470;9.832;2023-08-08T07:27:13;4.10;;;1.80;;
8100;SDS011;4093;53.470;9.832;2023-08-08T07:29:41;3.10;;;2.10;;
8100;SDS011;4093;53.470;9.832;2023-08-08T07:32:09;4.75;;;2.28;;
8100;SDS011;4093;53.470;9.832;2023-08-08T07:34:36;2.50;;;2.03;;
8100;SDS011;4093;53.470;9.832;2023-08-08T07:37:04;3.67;;;2.20;;
8100;SDS011;4093;53.470;9.832;2023-08-08T07:39:32;5.50;;;2.53;;
8100;SDS011;4093;53.470;9.832;2023-08-08T07:42:00;4.35;;;2.30;;
8100;SDS011;4093;53.470;9.832;2023-08-08T07:44:29;4.15;;;2.42;;
8100;SDS011;4093;53.470;9.832;2023-08-08T07:46:58;6.53;;;2.35;;
8100;SDS011;4093;53.470;9.832;2023-08-08T07:49:25;7.30;;;2.50;;
8100;SDS011;4093;53.470;9.832;2023-08-08T07:51:53;7.47;;;2.70;;
8100;SDS011;4093;53.470;9.832;2023-08-08T07:54:21;3.67;;;2.40;;
8100;SDS011;4093;53.470;9.832;2023-08-08T07:56:49;5.85;;;2.35;;
8100;SDS011;4093;53.470;9.832;2023-08-08T07:59:16;4.47;;;2.22;;
8100;SDS011;4093;53.470;9.832;2023-08-08T08:01:45;5.00;;;2.58;;
8100;SDS011;4093;53.470;9.832;2023-08-08T08:04:13;3.92;;;2.45;;
8100;SDS011;4093;53.470;9.832;2023-08-08T08:06:41;3.08;;;2.35;;
8100;SDS011;4093;53.470;9.832;2023-08-08T08:09:10;5.88;;;2.58;;
8100;SDS011;4093;53.470;9.832;2023-08-08T08:11:38;5.82;;;2.40;;
8100;SDS011;4093;53.470;9.832;2023-08-08T08:14:06;5.63;;;2.45;;
8100;SDS011;4093;53.470;9.832;2023-08-08T08:16:33;5.65;;;2.33;;
8100;SDS011;4093;53.470;9.832;2023-08-08T08:19:03;7.03;;;2.45;;
8100;SDS011;4093;53.470;9.832;2023-08-08T08:21:30;5.22;;;2.17;;
8100;SDS011;4093;53.470;9.832;2023-08-08T08:23:58;4.13;;;2.20;;
8100;SDS011;4093;53.470;9.832;2023-08-08T08:26:26;5.45;;;2.63;;
8100;SDS011;4093;53.470;9.832;2023-08-08T08:28:54;3.85;;;1.95;;
8100;SDS011;4093;53.470;9.832;2023-08-08T08:31:22;4.85;;;2.30;;
8100;SDS011;4093;53.470;9.832;2023-08-08T08:33:49;5.47;;;2.42;;
8100;SDS011;4093;53.470;9.832;2023-08-08T08:36:18;4.50;;;2.33;;
8100;SDS011;4093;53.470;9.832;2023-08-08T08:38:47;5.55;;;2.40;;
8100;SDS011;4093;53.470;9.832;2023-08-08T08:41:15;5.68;;;2.10;;
8100;SDS011;4093;53.470;9.832;2023-08-08T08:43:45;2.25;;;1.83;;
8100;SDS011;4093;53.470;9.832;2023-08-08T08:46:15;2.03;;;1.58;;
8100;SDS011;4093;53.470;9.832;2023-08-08T08:48:48;2.47;;;1.90;;
8100;SDS011;4093;53.470;9.832;2023-08-08T08:51:18;6.60;;;2.30;;
8100;SDS011;4093;53.470;9.832;2023-08-08T08:53:46;2.83;;;2.05;;
8100;SDS011;4093;53.470;9.832;2023-08-08T08:56:14;2.10;;;1.80;;
8100;SDS011;4093;53.470;9.832;2023-08-08T08:58:43;4.40;;;2.00;;
8100;SDS011;4093;53.470;9.832;2023-08-08T09:01:11;4.22;;;1.60;;
8100;SDS011;4093;53.470;9.832;2023-08-08T09:03:39;2.75;;;1.35;;
8100;SDS011;4093;53.470;9.832;2023-08-08T09:06:08;2.10;;;1.50;;
8100;SDS011;4093;53.470;9.832;2023-08-08T09:08:38;3.72;;;1.70;;
8100;SDS011;4093;53.470;9.832;2023-08-08T09:11:05;2.05;;;1.70;;
8100;SDS011;4093;53.470;9.832;2023-08-08T09:13:36;1.98;;;1.45;;
8100;SDS011;4093;53.470;9.832;2023-08-08T09:16:05;2.75;;;1.50;;
8100;SDS011;4093;53.470;9.832;2023-08-08T09:18:33;4.13;;;1.80;;
8100;SDS011;4093;53.470;9.832;2023-08-08T09:21:01;2.13;;;1.63;;
8100;SDS011;4093;53.470;9.832;2023-08-08T09:23:29;1.65;;;1.48;;
8100;SDS011;4093;53.470;9.832;2023-08-08T09:25:58;3.88;;;1.67;;
8100;SDS011;4093;53.470;9.832;2023-08-08T09:28:26;3.53;;;2.08;;
8100;SDS011;4093;53.470;9.832;2023-08-08T09:30:54;1.73;;;1.60;;
8100;SDS011;4093;53.470;9.832;2023-08-08T09:33:22;3.47;;;2.00;;
8100;SDS011;4093;53.470;9.832;2023-08-08T09:35:52;2.72;;;1.73;;
8100;SDS011;4093;53.470;9.832;2023-08-08T09:38:21;3.72;;;1.70;;
8100;SDS011;4093;53.470;9.832;2023-08-08T09:40:49;4.53;;;2.22;;
8100;SDS011;4093;53.470;9.832;2023-08-08T09:43:18;3.40;;;1.55;;
8100;SDS011;4093;53.470;9.832;2023-08-08T09:45:47;3.50;;;1.90;;
8100;SDS011;4093;53.470;9.832;2023-08-08T09:48:15;4.00;;;1.67;;
8100;SDS011;4093;53.470;9.832;2023-08-08T09:50:43;1.90;;;1.60;;
8100;SDS011;4093;53.470;9.832;2023-08-08T09:53:11;3.33;;;1.50;;
8100;SDS011;4093;53.470;9.832;2023-08-08T09:55:40;3.10;;;1.70;;
8100;SDS011;4093;53.470;9.832;2023-08-08T09:58:08;2.72;;;1.58;;
8100;SDS011;4093;53.470;9.832;2023-08-08T10:00:38;3.47;;;1.52;;
8100;SDS011;4093;53.470;9.832;2023-08-08T10:03:07;3.93;;;1.70;;
8100;SDS011;4093;53.470;9.832;2023-08-08T10:05:35;2.53;;;1.70;;
8100;SDS011;4093;53.470;9.832;2023-08-08T10:08:03;3.35;;;1.77;;
8100;SDS011;4093;53.470;9.832;2023-08-08T10:10:32;5.17;;;1.80;;
8100;SDS011;4093;53.470;9.832;2023-08-08T10:13:00;3.25;;;1.85;;
8100;SDS011;4093;53.470;9.832;2023-08-08T10:15:28;4.47;;;1.80;;
8100;SDS011;4093;53.470;9.832;2023-08-08T10:17:58;2.33;;;1.75;;
8100;SDS011;4093;53.470;9.832;2023-08-08T10:20:27;4.22;;;1.60;;
8100;SDS011;4093;53.470;9.832;2023-08-08T10:23:01;4.20;;;1.77;;
8100;SDS011;4093;53.470;9.832;2023-08-08T10:25:30;3.60;;;1.75;;
8100;SDS011;4093;53.470;9.832;2023-08-08T10:28:02;4.35;;;1.73;;
8100;SDS011;4093;53.470;9.832;2023-08-08T10:30:52;4.32;;;1.90;;
8100;SDS011;4093;53.470;9.832;2023-08-08T10:33:24;3.57;;;1.77;;
8100;SDS011;4093;53.470;9.832;2023-08-08T10:35:59;3.22;;;1.90;;
8100;SDS011;4093;53.470;9.832;2023-08-08T10:38:38;2.88;;;1.98;;
8100;SDS011;4093;53.470;9.832;2023-08-08T10:41:08;4.47;;;2.20;;
8100;SDS011;4093;53.470;9.832;2023-08-08T10:43:38;4.18;;;1.88;;
8100;SDS011;4093;53.470;9.832;2023-08-08T10:46:13;3.20;;;2.13;;
8100;SDS011;4093;53.470;9.832;2023-08-08T10:48:50;2.97;;;2.00;;
8100;SDS011;4093;53.470;9.832;2023-08-08T10:51:18;4.53;;;2.20;;
8100;SDS011;4093;53.470;9.832;2023-08-08T10:53:46;4.78;;;2.33;;
8100;SDS011;4093;53.470;9.832;2023-08-08T10:56:14;2.80;;;1.88;;
8100;SDS011;4093;53.470;9.832;2023-08-08T10:58:46;2.22;;;1.58;;
8100;SDS011;4093;53.470;9.832;2023-08-08T11:01:15;3.35;;;2.20;;
8100;SDS011;4093;53.470;9.832;2023-08-08T11:03:44;4.95;;;1.92;;
8100;SDS011;4093;53.470;9.832;2023-08-08T11:06:17;4.25;;;1.83;;
8100;SDS011;4093;53.470;9.832;2023-08-08T11:08:45;2.53;;;1.70;;
8100;SDS011;4093;53.470;9.832;2023-08-08T11:11:12;2.65;;;1.55;;
8100;SDS011;4093;53.470;9.832;2023-08-08T11:13:40;2.92;;;1.70;;
8100;SDS011;4093;53.470;9.832;2023-08-08T11:16:08;3.50;;;2.10;;
8100;SDS011;4093;53.470;9.832;2023-08-08T11:18:36;2.53;;;1.53;;
8100;SDS011;4093;53.470;9.832;2023-08-08T11:21:09;2.50;;;1.30;;
8100;SDS011;4093;53.470;9.832;2023-08-08T11:23:46;3.00;;;1.70;;
8100;SDS011;4093;53.470;9.832;2023-08-08T11:26:16;1.60;;;1.50;;
8100;SDS011;4093;53.470;9.832;2023-08-08T11:28:48;2.87;;;1.50;;
8100;SDS011;4093;53.470;9.832;2023-08-08T11:31:17;2.17;;;1.73;;
8100;SDS011;4093;53.470;9.832;2023-08-08T11:33:47;3.90;;;1.48;;
8100;SDS011;4093;53.470;9.832;2023-08-08T11:36:15;3.03;;;1.42;;
8100;SDS011;4093;53.470;9.832;2023-08-08T11:38:43;3.78;;;2.15;;
8100;SDS011;4093;53.470;9.832;2023-08-08T11:41:12;3.45;;;1.90;;
8100;SDS011;4093;53.470;9.832;2023-08-08T11:43:41;4.93;;;2.00;;
8100;SDS011;4093;53.470;9.832;2023-08-08T11:46:09;4.15;;;1.80;;
8100;SDS011;4093;53.470;9.832;2023-08-08T11:48:37;4.43;;;2.10;;
8100;SDS011;4093;53.470;9.832;2023-08-08T11:51:05;4.10;;;1.95;;
8100;SDS011;4093;53.470;9.832;2023-08-08T11:53:33;3.10;;;2.00;;
8100;SDS011;4093;53.470;9.832;2023-08-08T11:56:02;2.00;;;1.80;;
8100;SDS011;4093;53.470;9.832;2023-08-08T11:58:33;3.13;;;1.77;;
8100;SDS011;4093;53.470;9.832;2023-08-08T12:01:03;2.30;;;2.00;;
8100;SDS011;4093;53.470;9.832;2023-08-08T12:03:30;2.38;;;1.60;;
8100;SDS011;4093;53.470;9.832;2023-08-08T12:05:58;3.15;;;1.73;;
8100;SDS011;4093;53.470;9.832;2023-08-08T12:08:29;6.18;;;2.17;;
8100;SDS011;4093;53.470;9.832;2023-08-08T12:10:57;2.42;;;1.60;;
8100;SDS011;4093;53.470;9.832;2023-08-08T12:13:30;4.55;;;1.92;;
8100;SDS011;4093;53.470;9.832;2023-08-08T12:16:00;6.15;;;1.70;;
8100;SDS011;4093;53.470;9.832;2023-08-08T12:18:28;3.97;;;1.65;;
8100;SDS011;4093;53.470;9.832;2023-08-08T12:20:57;4.63;;;1.60;;
8100;SDS011;4093;53.470;9.832;2023-08-08T12:23:26;5.28;;;2.08;;
8100;SDS011;4093;53.470;9.832;2023-08-08T12:25:54;4.32;;;1.90;;
8100;SDS011;4093;53.470;9.832;2023-08-08T12:28:21;3.78;;;2.10;;
8100;SDS011;4093;53.470;9.832;2023-08-08T12:30:49;3.35;;;1.85;;
8100;SDS011;4093;53.470;9.832;2023-08-08T12:33:18;4.28;;;1.95;;
8100;SDS011;4093;53.470;9.832;2023-08-08T12:35:46;3.75;;;1.70;;
8100;SDS011;4093;53.470;9.832;2023-08-08T12:38:14;6.03;;;1.80;;
8100;SDS011;4093;53.470;9.832;2023-08-08T12:40:42;4.85;;;2.00;;
8100;SDS011;4093;53.470;9.832;2023-08-08T12:43:10;6.68;;;2.15;;
8100;SDS011;4093;53.470;9.832;2023-08-08T12:45:43;5.93;;;2.03;;
8100;SDS011;4093;53.470;9.832;2023-08-08T12:48:11;7.05;;;2.40;;
8100;SDS011;4093;53.470;9.832;2023-08-08T12:50:40;3.67;;;2.08;;
8100;SDS011;4093;53.470;9.832;2023-08-08T12:53:08;3.88;;;2.05;;
8100;SDS011;4093;53.470;9.832;2023-08-08T12:55:36;4.65;;;2.40;;
8100;SDS011;4093;53.470;9.832;2023-08-08T12:58:05;9.43;;;2.80;;
8100;SDS011;4093;53.470;9.832;2023-08-08T13:00:33;5.20;;;2.00;;
8100;SDS011;4093;53.470;9.832;2023-08-08T13:03:01;7.28;;;2.40;;
8100;SDS011;4093;53.470;9.832;2023-08-08T13:05:29;6.15;;;2.17;;
8100;SDS011;4093;53.470;9.832;2023-08-08T13:07:58;6.70;;;2.40;;
8100;SDS011;4093;53.470;9.832;2023-08-08T13:10:25;8.27;;;2.03;;
8100;SDS011;4093;53.470;9.832;2023-08-08T13:12:53;6.85;;;2.30;;
8100;SDS011;4093;53.470;9.832;2023-08-08T13:15:22;5.57;;;2.53;;
8100;SDS011;4093;53.470;9.832;2023-08-08T13:17:50;5.07;;;2.22;;
8100;SDS011;4093;53.470;9.832;2023-08-08T13:20:17;5.32;;;2.13;;
8100;SDS011;4093;53.470;9.832;2023-08-08T13:22:45;3.72;;;2.30;;
8100;SDS011;4093;53.470;9.832;2023-08-08T13:25:15;5.03;;;2.28;;
8100;SDS011;4093;53.470;9.832;2023-08-08T13:27:44;4.57;;;2.10;;
8100;SDS011;4093;53.470;9.832;2023-08-08T13:30:14;10.38;;;2.58;;
8100;SDS011;4093;53.470;9.832;2023-08-08T13:32:43;6.55;;;2.70;;
8100;SDS011;4093;53.470;9.832;2023-08-08T13:35:10;14.10;;;3.20;;
8100;SDS011;4093;53.470;9.832;2023-08-08T13:37:38;6.53;;;2.75;;
8100;SDS011;4093;53.470;9.832;2023-08-08T13:40:06;9.20;;;3.10;;
8100;SDS011;4093;53.470;9.832;2023-08-08T13:42:36;8.15;;;2.65;;
8100;SDS011;4093;53.470;9.832;2023-08-08T13:45:05;6.72;;;2.85;;
8100;SDS011;4093;53.470;9.832;2023-08-08T13:47:33;7.82;;;2.50;;
8100;SDS011;4093;53.470;9.832;2023-08-08T13:50:01;6.97;;;2.70;;
8100;SDS011;4093;53.470;9.832;2023-08-08T13:52:29;7.55;;;2.70;;
8100;SDS011;4093;53.470;9.832;2023-08-08T13:54:59;5.60;;;2.90;;
8100;SDS011;4093;53.470;9.832;2023-08-08T13:57:27;8.35;;;2.28;;
8100;SDS011;4093;53.470;9.832;2023-08-08T13:59:56;6.18;;;2.47;;
8100;SDS011;4093;53.470;9.832;2023-08-08T14:02:23;4.65;;;2.08;;
8100;SDS011;4093;53.470;9.832;2023-08-08T14:04:51;3.67;;;2.17;;
8100;SDS011;4093;53.470;9.832;2023-08-08T14:07:19;5.93;;;2.35;;
8100;SDS011;4093;53.470;9.832;2023-08-08T14:09:48;5.07;;;2.30;;
8100;SDS011;4093;53.470;9.832;2023-08-08T14:12:16;8.52;;;2.17;;
8100;SDS011;4093;53.470;9.832;2023-08-08T14:14:44;9.65;;;2.40;;
8100;SDS011;4093;53.470;9.832;2023-08-08T14:17:13;6.65;;;2.47;;
8100;SDS011;4093;53.470;9.832;2023-08-08T14:19:40;7.93;;;2.60;;
8100;SDS011;4093;53.470;9.832;2023-08-08T14:22:08;6.32;;;2.25;;
8100;SDS011;4093;53.470;9.832;2023-08-08T14:24:36;8.68;;;2.83;;
8100;SDS011;4093;53.470;9.832;2023-08-08T14:27:04;8.52;;;2.72;;
8100;SDS011;4093;53.470;9.832;2023-08-08T14:29:32;5.63;;;2.90;;
8100;SDS011;4093;53.470;9.832;2023-08-08T14:32:00;10.40;;;2.70;;
8100;SDS011;4093;53.470;9.832;2023-08-08T14:34:29;6.68;;;2.60;;
8100;SDS011;4093;53.470;9.832;2023-08-08T14:36:58;5.77;;;2.30;;
8100;SDS011;4093;53.470;9.832;2023-08-08T14:39:27;9.40;;;2.40;;
8100;SDS011;4093;53.470;9.832;2023-08-08T14:41:55;5.20;;;2.50;;
8100;SDS011;4093;53.470;9.832;2023-08-08T14:44:23;9.43;;;2.50;;
8100;SDS011;4093;53.470;9.832;2023-08-08T14:46:53;8.87;;;2.53;;
8100;SDS011;4093;53.470;9.832;2023-08-08T14:49:20;5.70;;;2.23;;
8100;SDS011;4093;53.470;9.832;2023-08-08T14:51:50;8.53;;;2.40;;
8100;SDS011;4093;53.470;9.832;2023-08-08T14:54:18;4.57;;;2.40;;
8100;SDS011;4093;53.470;9.832;2023-08-08T14:56:45;6.00;;;2.30;;
8100;SDS011;4093;53.470;9.832;2023-08-08T14:59:13;5.85;;;2.17;;
8100;SDS011;4093;53.470;9.832;2023-08-08T15:01:41;5.00;;;2.22;;
8100;SDS011;4093;53.470;9.832;2023-08-08T15:04:09;5.32;;;2.45;;
8100;SDS011;4093;53.470;9.832;2023-08-08T15:06:37;6.57;;;2.58;;
8100;SDS011;4093;53.470;9.832;2023-08-08T15:09:06;8.70;;;2.40;;
8100;SDS011;4093;53.470;9.832;2023-08-08T15:11:34;9.02;;;2.25;;
8100;SDS011;4093;53.470;9.832;2023-08-08T15:14:02;6.75;;;2.70;;
8100;SDS011;4093;53.470;9.832;2023-08-08T15:16:30;5.38;;;2.22;;
8100;SDS011;4093;53.470;9.832;2023-08-08T15:18:57;4.72;;;2.15;;
8100;SDS011;4093;53.470;9.832;2023-08-08T15:21:25;7.40;;;2.10;;
8100;SDS011;4093;53.470;9.832;2023-08-08T15:23:53;7.25;;;1.90;;